sensor_id;sensor_type;location;lat;lon;timestamp;pressure;altitude;pressure_sealevel;temperature;humidity
7333;BME280;3707;43.618;25.342;2022-10-23T00:01:34;100318.59;;;16.08;78.01
7333;BME280;3707;43.618;25.342;2022-10-23T00:04:05;100271.59;;;15.82;78.58
7333;BME280;3707;43.618;25.342;2022-10-23T00:06:33;100305.56;;;15.93;79.54
7333;BME280;3707;43.618;25.342;2022-10-23T00:09:01;100329.91;;;16.05;79.34
7333;BME280;3707;43.618;25.342;2022-10-23T00:11:29;100328.19;;;16.06;79.16
7333;BME280;3707;43.618;25.342;2022-10-23T00:13:58;100299.44;;;15.95;79.96
7333;BME280;3707;43.618;25.342;2022-10-23T00:16:26;100321.22;;;16.06;79.21
7333;BME280;3707;43.618;25.342;2022-10-23T00:18:53;100316.00;;;16.03;78.11
7333;BME280;3707;43.618;25.342;2022-10-23T00:21:22;100317.69;;;16.16;77.57
7333;BME280;3707;43.618;25.342;2022-10-23T00:23:49;100314.22;;;16.10;78.20
7333;BME280;3707;43.618;25.342;2022-10-23T00:26:16;100284.63;;;16.05;77.63
7333;BME280;3707;43.618;25.342;2022-10-23T00:28:44;100268.03;;;15.98;76.48
7333;BME280;3707;43.618;25.342;2022-10-23T00:31:12;100287.19;;;16.09;76.16
7333;BME280;3707;43.618;25.342;2022-10-23T00:33:39;100308.06;;;16.20;75.32
7333;BME280;3707;43.618;25.342;2022-10-23T00:36:08;100293.22;;;16.29;74.51
7333;BME280;3707;43.618;25.342;2022-10-23T00:38:37;100308.03;;;16.30;75.36
7333;BME280;3707;43.618;25.342;2022-10-23T00:41:06;100313.25;;;16.30;75.89
7333;BME280;3707;43.618;25.342;2022-10-23T00:43:52;100302.78;;;16.36;74.81
7333;BME280;3707;43.618;25.342;2022-10-23T00:46:20;100310.63;;;16.30;74.27
7333;BME280;3707;43.618;25.342;2022-10-23T00:48:46;100274.13;;;16.12;73.42
7333;BME280;3707;43.618;25.342;2022-10-23T00:51:13;100307.13;;;16.37;73.91
7333;BME280;3707;43.618;25.342;2022-10-23T00:53:42;100285.28;;;16.42;74.21
7333;BME280;3707;43.618;25.342;2022-10-23T00:56:10;100318.47;;;16.40;73.39
7333;BME280;3707;43.618;25.342;2022-10-23T00:58:37;100321.09;;;16.36;74.48
7333;BME280;3707;43.618;25.342;2022-10-23T01:01:15;100323.63;;;16.55;73.82
7333;BME280;3707;43.618;25.342;2022-10-23T01:03:42;100323.69;;;16.40;74.74
7333;BME280;3707;43.618;25.342;2022-10-23T01:06:12;100321.03;;;16.49;75.84
7333;BME280;3707;43.618;25.342;2022-10-23T01:08:47;100304.53;;;16.33;77.12
7333;BME280;3707;43.618;25.342;2022-10-23T01:11:20;100324.63;;;16.25;79.61
7333;BME280;3707;43.618;25.342;2022-10-23T01:13:57;100300.28;;;16.02;79.25
7333;BME280;3707;43.618;25.342;2022-10-23T01:16:33;100312.53;;;16.00;80.37
7333;BME280;3707;43.618;25.342;2022-10-23T01:19:08;100309.13;;;15.76;83.45
7333;BME280;3707;43.618;25.342;2022-10-23T01:21:43;100227.31;;;15.11;85.38
7333;BME280;3707;43.618;25.342;2022-10-23T01:24:24;100350.94;;;15.37;86.67
7333;BME280;3707;43.618;25.342;2022-10-23T01:27:09;100374.41;;;14.93;87.49
7333;BME280;3707;43.618;25.342;2022-10-23T01:29:39;100369.97;;;14.65;89.78
7333;BME280;3707;43.618;25.342;2022-10-23T01:32:11;100342.97;;;14.45;90.51
7333;BME280;3707;43.618;25.342;2022-10-23T01:34:45;100327.16;;;14.20;91.90
7333;BME280;3707;43.618;25.342;2022-10-23T01:37:16;100358.50;;;14.29;92.89
7333;BME280;3707;43.618;25.342;2022-10-23T01:39:48;100365.34;;;14.08;94.67
7333;BME280;3707;43.618;25.342;2022-10-23T01:42:18;100357.41;;;13.86;97.54
7333;BME280;3707;43.618;25.342;2022-10-23T01:44:50;100352.25;;;13.99;97.36
7333;BME280;3707;43.618;25.342;2022-10-23T01:47:22;100361.97;;;14.22;95.18
7333;BME280;3707;43.618;25.342;2022-10-23T01:49:51;100360.25;;;14.26;93.92
7333;BME280;3707;43.618;25.342;2022-10-23T01:52:20;100379.53;;;14.60;91.14
7333;BME280;3707;43.618;25.342;2022-10-23T01:54:49;100375.25;;;14.81;89.52
7333;BME280;3707;43.618;25.342;2022-10-23T01:57:19;100374.41;;;14.96;88.56
7333;BME280;3707;43.618;25.342;2022-10-23T01:59:50;100379.66;;;15.11;86.79
7333;BME280;3707;43.618;25.342;2022-10-23T02:02:20;100371.81;;;15.23;84.99
7333;BME280;3707;43.618;25.342;2022-10-23T02:04:54;100301.31;;;15.11;82.93
7333;BME280;3707;43.618;25.342;2022-10-23T02:07:22;100395.38;;;15.60;81.82
7333;BME280;3707;43.618;25.342;2022-10-23T02:09:49;100393.63;;;15.63;81.15
7333;BME280;3707;43.618;25.342;2022-10-23T02:12:25;100399.72;;;15.90;79.04
7333;BME280;3707;43.618;25.342;2022-10-23T02:14:56;100387.50;;;15.93;78.20
7333;BME280;3707;43.618;25.342;2022-10-23T02:17:30;100401.38;;;16.25;76.92
7333;BME280;3707;43.618;25.342;2022-10-23T02:20:07;100405.69;;;16.38;76.21
7333;BME280;3707;43.618;25.342;2022-10-23T02:22:44;100399.56;;;16.50;75.34
7333;BME280;3707;43.618;25.342;2022-10-23T02:25:17;100399.50;;;16.68;74.54
7333;BME280;3707;43.618;25.342;2022-10-23T02:27:49;100394.22;;;16.83;72.48
7333;BME280;3707;43.618;25.342;2022-10-23T02:30:19;100414.09;;;17.13;71.14
7333;BME280;3707;43.618;25.342;2022-10-23T02:32:47;100408.75;;;17.28;69.91
7333;BME280;3707;43.618;25.342;2022-10-23T02:35:18;100410.41;;;17.42;68.98
7333;BME280;3707;43.618;25.342;2022-10-23T02:37:51;100416.31;;;17.71;67.40
7333;BME280;3707;43.618;25.342;2022-10-23T02:40:19;100396.19;;;17.76;66.71
7333;BME280;3707;43.618;25.342;2022-10-23T02:42:52;100374.13;;;17.95;65.22
7333;BME280;3707;43.618;25.342;2022-10-23T02:45:27;100409.63;;;18.26;64.25
7333;BME280;3707;43.618;25.342;2022-10-23T02:47:59;100414.63;;;18.54;63.30
7333;BME280;3707;43.618;25.342;2022-10-23T02:50:36;100419.69;;;18.69;62.41
7333;BME280;3707;43.618;25.342;2022-10-23T02:53:11;100419.53;;;18.81;61.50
7333;BME280;3707;43.618;25.342;2022-10-23T02:55:47;100426.38;;;18.93;60.93
7333;BME280;3707;43.618;25.342;2022-10-23T02:58:21;100436.84;;;18.94;60.86
7333;BME280;3707;43.618;25.342;2022-10-23T03:00:51;100426.56;;;18.79;61.34
7333;BME280;3707;43.618;25.342;2022-10-23T03:03:23;100405.66;;;18.70;61.39
7333;BME280;3707;43.618;25.342;2022-10-23T03:05:52;100430.94;;;18.78;61.11
7333;BME280;3707;43.618;25.342;2022-10-23T03:08:19;100435.28;;;18.81;61.17
7333;BME280;3707;43.618;25.342;2022-10-23T03:10:46;100400.63;;;18.52;61.37
7333;BME280;3707;43.618;25.342;2022-10-23T03:13:13;100439.75;;;18.73;62.41
7333;BME280;3707;43.618;25.342;2022-10-23T03:15:41;100450.91;;;18.93;61.84
7333;BME280;3707;43.618;25.342;2022-10-23T03:18:08;100418.13;;;18.50;62.26
7333;BME280;3707;43.618;25.342;2022-10-23T03:20:35;100407.53;;;18.59;61.96
7333;BME280;3707;43.618;25.342;2022-10-23T03:23:01;100427.75;;;18.52;62.99
7333;BME280;3707;43.618;25.342;2022-10-23T03:25:28;100447.63;;;18.73;62.81
7333;BME280;3707;43.618;25.342;2022-10-23T03:27:55;100449.66;;;18.48;64.27
7333;BME280;3707;43.618;25.342;2022-10-23T03:30:22;100446.13;;;18.54;64.65
7333;BME280;3707;43.618;25.342;2022-10-23T03:32:50;100432.22;;;18.43;65.43
7333;BME280;3707;43.618;25.342;2022-10-23T03:35:17;100432.50;;;18.18;66.02
7333;BME280;3707;43.618;25.342;2022-10-23T03:37:43;100400.41;;;17.91;67.09
7333;BME280;3707;43.618;25.342;2022-10-23T03:40:10;100423.81;;;18.10;67.31
7333;BME280;3707;43.618;25.342;2022-10-23T03:42:37;100405.44;;;18.10;67.70
7333;BME280;3707;43.618;25.342;2022-10-23T03:45:04;100458.56;;;18.37;68.08
7333;BME280;3707;43.618;25.342;2022-10-23T03:47:31;100363.03;;;17.66;68.73
7333;BME280;3707;43.618;25.342;2022-10-23T03:50:01;100464.66;;;18.37;69.43
7333;BME280;3707;43.618;25.342;2022-10-23T03:52:27;100455.25;;;18.16;70.28
7333;BME280;3707;43.618;25.342;2022-10-23T03:54:54;100442.19;;;18.09;71.11
7333;BME280;3707;43.618;25.342;2022-10-23T03:57:21;100471.84;;;18.21;71.31
7333;BME280;3707;43.618;25.342;2022-10-23T03:59:48;100482.34;;;18.20;72.61
7333;BME280;3707;43.618;25.342;2022-10-23T04:02:15;100493.63;;;18.26;72.30
7333;BME280;3707;43.618;25.342;2022-10-23T04:04:42;100485.03;;;18.15;74.06
7333;BME280;3707;43.618;25.342;2022-10-23T04:07:10;100477.16;;;18.12;75.45
7333;BME280;3707;43.618;25.342;2022-10-23T04:09:37;100465.97;;;17.94;76.91
7333;BME280;3707;43.618;25.342;2022-10-23T04:12:04;100492.06;;;18.10;78.02
7333;BME280;3707;43.618;25.342;2022-10-23T04:14:31;100492.03;;;18.13;78.43
7333;BME280;3707;43.618;25.342;2022-10-23T04:16:58;100485.19;;;17.97;80.97
7333;BME280;3707;43.618;25.342;2022-10-23T04:19:25;100481.72;;;17.94;82.30
7333;BME280;3707;43.618;25.342;2022-10-23T04:21:52;100492.94;;;18.09;84.56
7333;BME280;3707;43.618;25.342;2022-10-23T04:24:20;100505.09;;;18.21;86.57
7333;BME280;3707;43.618;25.342;2022-10-23T04:26:48;100490.28;;;18.12;86.19
7333;BME280;3707;43.618;25.342;2022-10-23T04:29:15;100514.75;;;18.19;86.93
7333;BME280;3707;43.618;25.342;2022-10-23T04:31:42;100504.28;;;18.14;87.70
7333;BME280;3707;43.618;25.342;2022-10-23T04:34:09;100513.09;;;18.07;89.10
7333;BME280;3707;43.618;25.342;2022-10-23T04:36:35;100507.78;;;18.13;89.35
7333;BME280;3707;43.618;25.342;2022-10-23T04:39:02;100506.94;;;18.10;89.54
7333;BME280;3707;43.618;25.342;2022-10-23T04:41:31;100517.34;;;18.20;90.21
7333;BME280;3707;43.618;25.342;2022-10-23T04:43:57;100501.81;;;17.98;92.79
7333;BME280;3707;43.618;25.342;2022-10-23T04:46:24;100489.56;;;17.95;93.90
7333;BME280;3707;43.618;25.342;2022-10-23T04:48:51;100504.41;;;17.99;94.59
7333;BME280;3707;43.618;25.342;2022-10-23T04:51:18;100507.00;;;18.02;95.50
7333;BME280;3707;43.618;25.342;2022-10-23T04:53:44;100525.25;;;18.17;94.62
7333;BME280;3707;43.618;25.342;2022-10-23T04:56:12;100494.69;;;18.09;95.04
7333;BME280;3707;43.618;25.342;2022-10-23T04:58:41;100517.41;;;18.13;97.58
7333;BME280;3707;43.618;25.342;2022-10-23T05:01:08;100526.16;;;18.15;97.93
7333;BME280;3707;43.618;25.342;2022-10-23T05:03:36;100501.81;;;17.98;100.00
7333;BME280;3707;43.618;25.342;2022-10-23T05:06:04;100501.66;;;18.13;100.00
7333;BME280;3707;43.618;25.342;2022-10-23T05:08:31;100501.75;;;18.02;100.00
7333;BME280;3707;43.618;25.342;2022-10-23T05:11:00;100513.91;;;18.15;100.00
7333;BME280;3707;43.618;25.342;2022-10-23T05:13:27;100512.22;;;18.08;100.00
7333;BME280;3707;43.618;25.342;2022-10-23T05:15:57;100521.69;;;18.24;100.00
7333;BME280;3707;43.618;25.342;2022-10-23T05:18:26;100526.84;;;18.32;100.00
7333;BME280;3707;43.618;25.342;2022-10-23T05:20:57;100531.19;;;18.34;100.00
7333;BME280;3707;43.618;25.342;2022-10-23T05:23:25;100534.66;;;18.40;100.00
7333;BME280;3707;43.618;25.342;2022-10-23T05:25:53;100539.19;;;18.25;100.00
7333;BME280;3707;43.618;25.342;2022-10-23T05:28:20;100551.41;;;18.29;100.00
7333;BME280;3707;43.618;25.342;2022-10-23T05:30:47;100532.16;;;18.24;100.00
7333;BME280;3707;43.618;25.342;2022-10-23T05:33:16;100559.13;;;18.42;100.00
7333;BME280;3707;43.618;25.342;2022-10-23T05:35:43;100570.56;;;18.39;100.00
7333;BME280;3707;43.618;25.342;2022-10-23T05:38:12;100566.16;;;18.40;100.00
7333;BME280;3707;43.618;25.342;2022-10-23T05:40:40;100570.59;;;18.36;100.00
7333;BME280;3707;43.618;25.342;2022-10-23T05:43:06;100573.16;;;18.44;100.00
7333;BME280;3707;43.618;25.342;2022-10-23T05:45:33;100563.59;;;18.33;100.00
7333;BME280;3707;43.618;25.342;2022-10-23T05:48:00;100574.75;;;18.60;100.00
7333;BME280;3707;43.618;25.342;2022-10-23T05:50:28;100590.34;;;18.79;100.00
7333;BME280;3707;43.618;25.342;2022-10-23T05:52:55;100597.50;;;18.64;100.00
7333;BME280;3707;43.618;25.342;2022-10-23T05:55:22;100561.81;;;18.39;100.00
7333;BME280;3707;43.618;25.342;2022-10-23T05:57:48;100595.75;;;18.63;100.00
7333;BME280;3707;43.618;25.342;2022-10-23T06:00:15;100581.59;;;18.77;100.00
7333;BME280;3707;43.618;25.342;2022-10-23T06:02:42;100591.25;;;18.74;100.00
7333;BME280;3707;43.618;25.342;2022-10-23T06:05:09;100585.88;;;18.86;100.00
7333;BME280;3707;43.618;25.342;2022-10-23T06:07:37;100595.31;;;19.04;100.00
7333;BME280;3707;43.618;25.342;2022-10-23T06:10:05;100595.41;;;18.98;100.00
7333;BME280;3707;43.618;25.342;2022-10-23T06:12:31;100598.03;;;18.96;100.00
7333;BME280;3707;43.618;25.342;2022-10-23T06:14:58;100584.09;;;18.90;100.00
7333;BME280;3707;43.618;25.342;2022-10-23T06:17:26;100605.91;;;18.98;100.00
7333;BME280;3707;43.618;25.342;2022-10-23T06:19:53;100605.09;;;18.91;100.00
7333;BME280;3707;43.618;25.342;2022-10-23T06:22:25;100617.16;;;19.09;100.00
7333;BME280;3707;43.618;25.342;2022-10-23T06:24:53;100626.00;;;19.03;100.00
7333;BME280;3707;43.618;25.342;2022-10-23T06:27:20;100606.88;;;18.89;100.00
7333;BME280;3707;43.618;25.342;2022-10-23T06:29:47;100613.69;;;19.05;100.00
7333;BME280;3707;43.618;25.342;2022-10-23T06:32:13;100611.06;;;19.07;100.00
7333;BME280;3707;43.618;25.342;2022-10-23T06:34:40;100627.47;;;19.27;100.00
7333;BME280;3707;43.618;25.342;2022-10-23T06:37:07;100618.81;;;19.16;100.00
7333;BME280;3707;43.618;25.342;2022-10-23T06:39:34;100610.25;;;19.00;100.00
7333;BME280;3707;43.618;25.342;2022-10-23T06:42:02;100640.38;;;19.50;99.76
7333;BME280;3707;43.618;25.342;2022-10-23T06:44:29;100627.34;;;19.38;99.58
7333;BME280;3707;43.618;25.342;2022-10-23T06:46:56;100663.28;;;19.42;99.93
7333;BME280;3707;43.618;25.342;2022-10-23T06:49:24;100645.72;;;19.44;99.25
7333;BME280;3707;43.618;25.342;2022-10-23T06:51:51;100651.72;;;19.55;98.36
7333;BME280;3707;43.618;25.342;2022-10-23T06:54:18;100644.75;;;19.51;97.90
7333;BME280;3707;43.618;25.342;2022-10-23T06:56:44;100641.13;;;19.61;97.79
7333;BME280;3707;43.618;25.342;2022-10-23T06:59:13;100651.31;;;19.87;95.53
7333;BME280;3707;43.618;25.342;2022-10-23T07:01:40;100657.56;;;19.79;95.11
7333;BME280;3707;43.618;25.342;2022-10-23T07:04:07;100668.81;;;19.89;94.04
7333;BME280;3707;43.618;25.342;2022-10-23T07:06:34;100662.53;;;19.99;93.45
7333;BME280;3707;43.618;25.342;2022-10-23T07:09:01;100667.06;;;19.88;92.79
7333;BME280;3707;43.618;25.342;2022-10-23T07:11:27;100651.41;;;19.79;93.21
7333;BME280;3707;43.618;25.342;2022-10-23T07:13:54;100670.31;;;20.05;91.47
7333;BME280;3707;43.618;25.342;2022-10-23T07:16:22;100671.97;;;20.15;90.87
7333;BME280;3707;43.618;25.342;2022-10-23T07:18:53;100680.56;;;20.30;89.33
7333;BME280;3707;43.618;25.342;2022-10-23T07:21:23;100665.81;;;20.13;89.65
7333;BME280;3707;43.618;25.342;2022-10-23T07:23:50;100679.06;;;20.09;88.98
7333;BME280;3707;43.618;25.342;2022-10-23T07:26:17;100680.75;;;20.14;89.00
7333;BME280;3707;43.618;25.342;2022-10-23T07:28:45;100613.47;;;19.92;87.75
7333;BME280;3707;43.618;25.342;2022-10-23T07:31:13;100658.09;;;20.03;87.47
7333;BME280;3707;43.618;25.342;2022-10-23T07:33:41;100690.88;;;20.42;86.73
7333;BME280;3707;43.618;25.342;2022-10-23T07:36:08;100676.94;;;20.37;86.43
7333;BME280;3707;43.618;25.342;2022-10-23T07:38:35;100678.81;;;20.25;85.65
7333;BME280;3707;43.618;25.342;2022-10-23T07:41:03;100677.06;;;20.27;86.20
7333;BME280;3707;43.618;25.342;2022-10-23T07:43:29;100698.00;;;20.37;nan
7333;BME280;3707;43.618;25.342;2022-10-23T07:45:56;100704.00;;;20.46;84.07
7333;BME280;3707;43.618;25.342;2022-10-23T07:48:23;100696.03;;;20.51;83.41
7333;BME280;3707;43.618;25.342;2022-10-23T07:50:53;100703.03;;;20.52;83.74
7333;BME280;3707;43.618;25.342;2022-10-23T07:53:24;100629.59;;;20.31;81.91
7333;BME280;3707;43.618;25.342;2022-10-23T07:55:52;100702.84;;;20.64;82.06
7333;BME280;3707;43.618;25.342;2022-10-23T07:58:19;100700.44;;;20.49;81.81
7333;BME280;3707;43.618;25.342;2022-10-23T08:00:47;100683.59;;;20.59;80.97
7333;BME280;3707;43.618;25.342;2022-10-23T08:03:18;100713.31;;;20.67;81.44
7333;BME280;3707;43.618;25.342;2022-10-23T08:05:45;100708.91;;;20.69;79.85
7333;BME280;3707;43.618;25.342;2022-10-23T08:08:14;100722.31;;;21.07;78.60
7333;BME280;3707;43.618;25.342;2022-10-23T08:10:40;100721.28;;;21.16;77.70
7333;BME280;3707;43.618;25.342;2022-10-23T08:13:10;100716.00;;;21.17;77.75
7333;BME280;3707;43.618;25.342;2022-10-23T08:15:37;100717.75;;;21.18;76.75
7333;BME280;3707;43.618;25.342;2022-10-23T08:18:04;100714.25;;;21.16;76.68
7333;BME280;3707;43.618;25.342;2022-10-23T08:20:31;100704.72;;;21.11;76.63
7333;BME280;3707;43.618;25.342;2022-10-23T08:22:59;100722.69;;;21.37;75.61
7333;BME280;3707;43.618;25.342;2022-10-23T08:25:27;100710.88;;;21.56;74.48
7333;BME280;3707;43.618;25.342;2022-10-23T08:27:54;100698.28;;;21.25;73.94
7333;BME280;3707;43.618;25.342;2022-10-23T08:30:20;100687.00;;;21.17;72.77
7333;BME280;3707;43.618;25.342;2022-10-23T08:32:47;100719.06;;;21.41;72.46
7333;BME280;3707;43.618;25.342;2022-10-23T08:35:14;100715.53;;;21.42;72.33
7333;BME280;3707;43.618;25.342;2022-10-23T08:37:41;100710.47;;;21.33;72.09
7333;BME280;3707;43.618;25.342;2022-10-23T08:40:13;100717.00;;;21.58;71.22
7333;BME280;3707;43.618;25.342;2022-10-23T08:42:43;100710.19;;;21.45;71.26
7333;BME280;3707;43.618;25.342;2022-10-23T08:45:29;100631.91;;;20.99;70.73
7333;BME280;3707;43.618;25.342;2022-10-23T08:48:02;100715.03;;;21.67;70.65
7333;BME280;3707;43.618;25.342;2022-10-23T08:50:35;100713.13;;;21.74;69.84
7333;BME280;3707;43.618;25.342;2022-10-23T08:53:05;100717.19;;;21.92;68.79
7333;BME280;3707;43.618;25.342;2022-10-23T08:55:40;100714.84;;;21.76;68.83
7333;BME280;3707;43.618;25.342;2022-10-23T08:58:14;100695.19;;;21.91;67.61
7333;BME280;3707;43.618;25.342;2022-10-23T09:00:44;100713.09;;;22.18;67.28
7333;BME280;3707;43.618;25.342;2022-10-23T09:03:12;100709.09;;;22.01;66.74
7333;BME280;3707;43.618;25.342;2022-10-23T09:05:49;100641.00;;;21.73;65.83
7333;BME280;3707;43.618;25.342;2022-10-23T09:08:33;100681.28;;;22.23;65.00
7333;BME280;3707;43.618;25.342;2022-10-23T09:11:10;100702.81;;;22.05;64.88
7333;BME280;3707;43.618;25.342;2022-10-23T09:14:04;100723.22;;;22.37;64.26
7333;BME280;3707;43.618;25.342;2022-10-23T09:16:45;100712.19;;;22.19;63.84
7333;BME280;3707;43.618;25.342;2022-10-23T09:19:20;100717.59;;;22.13;63.87
7333;BME280;3707;43.618;25.342;2022-10-23T09:21:49;100709.84;;;22.06;63.62
7333;BME280;3707;43.618;25.342;2022-10-23T09:24:19;100722.22;;;22.04;63.75
7333;BME280;3707;43.618;25.342;2022-10-23T09:26:48;100716.56;;;22.22;64.12
7333;BME280;3707;43.618;25.342;2022-10-23T09:29:22;100719.22;;;22.20;63.38
7333;BME280;3707;43.618;25.342;2022-10-23T09:31:50;100725.94;;;22.35;62.67
7333;BME280;3707;43.618;25.342;2022-10-23T09:34:19;100723.28;;;22.35;62.98
7333;BME280;3707;43.618;25.342;2022-10-23T09:36:49;100720.59;;;22.37;63.16
7333;BME280;3707;43.618;25.342;2022-10-23T09:39:28;100731.53;;;22.58;62.14
7333;BME280;3707;43.618;25.342;2022-10-23T09:41:56;100731.91;;;22.80;61.22
7333;BME280;3707;43.618;25.342;2022-10-23T09:44:26;100710.25;;;22.64;61.73
7333;BME280;3707;43.618;25.342;2022-10-23T09:46:54;100728.88;;;22.58;61.57
7333;BME280;3707;43.618;25.342;2022-10-23T09:49:23;100724.75;;;22.85;60.21
7333;BME280;3707;43.618;25.342;2022-10-23T09:51:59;100722.97;;;22.86;59.95
7333;BME280;3707;43.618;25.342;2022-10-23T09:54:26;100715.97;;;22.83;59.70
7333;BME280;3707;43.618;25.342;2022-10-23T09:56:54;100678.59;;;22.61;59.64
7333;BME280;3707;43.618;25.342;2022-10-23T09:59:26;100705.63;;;22.74;59.80
7333;BME280;3707;43.618;25.342;2022-10-23T10:01:55;100703.69;;;22.82;59.75
7333;BME280;3707;43.618;25.342;2022-10-23T10:04:34;100707.63;;;23.00;59.25
7333;BME280;3707;43.618;25.342;2022-10-23T10:07:03;100709.56;;;22.93;58.87
7333;BME280;3707;43.618;25.342;2022-10-23T10:09:31;100701.38;;;22.68;59.00
7333;BME280;3707;43.618;25.342;2022-10-23T10:12:10;100707.75;;;22.95;58.78
7333;BME280;3707;43.618;25.342;2022-10-23T10:14:50;100711.75;;;23.11;58.84
7333;BME280;3707;43.618;25.342;2022-10-23T10:17:23;100702.97;;;23.09;58.05
7333;BME280;3707;43.618;25.342;2022-10-23T10:20:05;100697.25;;;23.25;57.72
7333;BME280;3707;43.618;25.342;2022-10-23T10:22:39;100692.56;;;23.02;57.89
7333;BME280;3707;43.618;25.342;2022-10-23T10:25:11;100676.91;;;23.27;56.88
7333;BME280;3707;43.618;25.342;2022-10-23T10:27:51;100680.84;;;23.44;56.34
7333;BME280;3707;43.618;25.342;2022-10-23T10:30:24;100664.88;;;23.47;56.65
7333;BME280;3707;43.618;25.342;2022-10-23T10:32:57;100677.88;;;23.56;56.22
7333;BME280;3707;43.618;25.342;2022-10-23T10:35:36;100666.41;;;23.56;55.64
7333;BME280;3707;43.618;25.342;2022-10-23T10:38:15;100687.25;;;23.68;55.22
7333;BME280;3707;43.618;25.342;2022-10-23T10:40:50;100681.31;;;23.58;55.45
7333;BME280;3707;43.618;25.342;2022-10-23T10:43:30;100665.00;;;23.74;54.83
7333;BME280;3707;43.618;25.342;2022-10-23T10:46:08;100678.47;;;23.66;54.76
7333;BME280;3707;43.618;25.342;2022-10-23T10:48:46;100659.81;;;23.70;53.34
7333;BME280;3707;43.618;25.342;2022-10-23T10:51:21;100639.06;;;23.55;53.35
7333;BME280;3707;43.618;25.342;2022-10-23T10:54:00;100655.72;;;23.88;53.06
7333;BME280;3707;43.618;25.342;2022-10-23T10:56:33;100649.34;;;23.66;53.80
7333;BME280;3707;43.618;25.342;2022-10-23T10:59:04;100648.53;;;23.64;54.02
7333;BME280;3707;43.618;25.342;2022-10-23T11:01:41;100657.47;;;23.89;53.39
7333;BME280;3707;43.618;25.342;2022-10-23T11:04:12;100680.75;;;24.07;53.12
7333;BME280;3707;43.618;25.342;2022-10-23T11:06:40;100672.94;;;24.03;52.90
7333;BME280;3707;43.618;25.342;2022-10-23T11:09:14;100655.38;;;24.00;52.16
7333;BME280;3707;43.618;25.342;2022-10-23T11:11:42;100652.53;;;23.77;52.32
7333;BME280;3707;43.618;25.342;2022-10-23T11:14:14;100644.81;;;23.99;51.99
7333;BME280;3707;43.618;25.342;2022-10-23T11:16:45;100642.38;;;23.91;51.65
7333;BME280;3707;43.618;25.342;2022-10-23T11:19:19;100644.91;;;23.96;51.13
7333;BME280;3707;43.618;25.342;2022-10-23T11:21:54;100685.44;;;24.29;50.88
7333;BME280;3707;43.618;25.342;2022-10-23T11:24:45;100679.22;;;24.00;50.82
7333;BME280;3707;43.618;25.342;2022-10-23T11:27:38;100672.84;;;24.06;50.40
7333;BME280;3707;43.618;25.342;2022-10-23T11:30:18;100598.44;;;23.56;50.46
7333;BME280;3707;43.618;25.342;2022-10-23T11:33:04;100661.13;;;24.14;50.01
7333;BME280;3707;43.618;25.342;2022-10-23T11:35:47;100649.34;;;23.95;50.26
7333;BME280;3707;43.618;25.342;2022-10-23T11:38:23;100660.22;;;23.86;50.28
7333;BME280;3707;43.618;25.342;2022-10-23T11:40:53;100652.97;;;23.91;50.25
7333;BME280;3707;43.618;25.342;2022-10-23T11:43:26;100654.25;;;24.07;49.89
7333;BME280;3707;43.618;25.342;2022-10-23T11:45:53;100654.41;;;24.31;49.51
7333;BME280;3707;43.618;25.342;2022-10-23T11:48:33;100654.53;;;24.28;49.42
7333;BME280;3707;43.618;25.342;2022-10-23T11:51:02;100645.56;;;24.02;49.53
7333;BME280;3707;43.618;25.342;2022-10-23T11:53:38;100651.44;;;24.13;48.64
7333;BME280;3707;43.618;25.342;2022-10-23T11:56:24;100653.28;;;24.10;48.75
7333;BME280;3707;43.618;25.342;2022-10-23T11:58:55;100658.91;;;24.29;48.47
7333;BME280;3707;43.618;25.342;2022-10-23T12:01:27;100652.53;;;24.34;48.10
7333;BME280;3707;43.618;25.342;2022-10-23T12:04:00;100638.72;;;23.95;48.98
7333;BME280;3707;43.618;25.342;2022-10-23T12:06:31;100646.69;;;24.25;48.96
7333;BME280;3707;43.618;25.342;2022-10-23T12:09:06;100625.63;;;24.20;48.79
7333;BME280;3707;43.618;25.342;2022-10-23T12:11:42;100559.16;;;23.98;48.36
7333;BME280;3707;43.618;25.342;2022-10-23T12:14:25;100655.72;;;24.45;47.97
7333;BME280;3707;43.618;25.342;2022-10-23T12:16:52;100654.66;;;24.23;48.13
7333;BME280;3707;43.618;25.342;2022-10-23T12:19:22;100658.00;;;24.56;48.14
7333;BME280;3707;43.618;25.342;2022-10-23T12:21:50;100650.94;;;24.56;48.05
7333;BME280;3707;43.618;25.342;2022-10-23T12:24:31;100640.00;;;24.39;48.37
7333;BME280;3707;43.618;25.342;2022-10-23T12:27:16;100644.91;;;24.51;48.44
7333;BME280;3707;43.618;25.342;2022-10-23T12:29:55;100599.31;;;24.14;49.00
7333;BME280;3707;43.618;25.342;2022-10-23T12:32:47;100641.72;;;24.40;49.78
7333;BME280;3707;43.618;25.342;2022-10-23T12:35:46;100634.47;;;24.47;49.31
7333;BME280;3707;43.618;25.342;2022-10-23T12:38:19;100636.59;;;24.36;50.01
7333;BME280;3707;43.618;25.342;2022-10-23T12:40:50;100638.31;;;24.37;50.72
7333;BME280;3707;43.618;25.342;2022-10-23T12:43:24;100622.63;;;24.31;50.25
7333;BME280;3707;43.618;25.342;2022-10-23T12:45:53;100643.44;;;24.43;49.69
7333;BME280;3707;43.618;25.342;2022-10-23T12:48:22;100575.16;;;23.95;49.73
7333;BME280;3707;43.618;25.342;2022-10-23T12:50:52;100648.22;;;24.32;49.70
7333;BME280;3707;43.618;25.342;2022-10-23T12:53:20;100615.06;;;24.18;50.35
7333;BME280;3707;43.618;25.342;2022-10-23T12:55:52;100636.38;;;24.42;49.97
7333;BME280;3707;43.618;25.342;2022-10-23T12:58:20;100626.78;;;24.38;49.63
7333;BME280;3707;43.618;25.342;2022-10-23T13:00:53;100631.44;;;24.31;50.31
7333;BME280;3707;43.618;25.342;2022-10-23T13:03:20;100632.19;;;24.35;50.62
7333;BME280;3707;43.618;25.342;2022-10-23T13:05:51;100637.13;;;24.47;50.40
7333;BME280;3707;43.618;25.342;2022-10-23T13:08:20;100648.13;;;24.35;49.60
7333;BME280;3707;43.618;25.342;2022-10-23T13:10:47;100644.72;;;24.30;50.00
7333;BME280;3707;43.618;25.342;2022-10-23T13:13:19;100653.28;;;24.39;49.67
7333;BME280;3707;43.618;25.342;2022-10-23T13:15:47;100642.81;;;24.35;49.38
7333;BME280;3707;43.618;25.342;2022-10-23T13:18:14;100625.06;;;24.37;49.29